GSGTS EGPR-EGPF

Flight info

Callsign GSGTS
Flight time 0h 43m
Altitude 7000
Route TIR DCT BRUCE
Aircraft DHC6/L-SDFGR/C

Departure

Time 2026-04-28 17:56
Airport Barra Airport (EGPR)

Arrival

Time 2026-04-28 18:39
Airport Glasgow Airport (EGPF)
Time Latitude Longitude Altitude Speed Heading
2026-04-28 17:54 57.02542 -7.44875 8 ft 0 kts 135°
2026-04-28 17:55 57.02538 -7.44871 7 ft 3 kts 165°
2026-04-28 17:55 57.02512 -7.44868 7 ft 0 kts 178°
2026-04-28 17:55 57.02278 -7.44839 57 ft 82 kts 163°
2026-04-28 17:56 57.01843 -7.43915 396 ft 117 kts 120°
2026-04-28 17:56 57.01239 -7.43003 1013 ft 118 kts 144°
2026-04-28 17:56 57.00574 -7.42187 1588 ft 118 kts 150°
2026-04-28 17:56 56.99883 -7.41454 2242 ft 117 kts 148°
2026-04-28 17:57 56.99191 -7.40717 2891 ft 117 kts 147°
2026-04-28 17:57 56.98505 -7.39980 3530 ft 118 kts 147°
2026-04-28 17:57 56.97809 -7.39233 4154 ft 120 kts 146°
2026-04-28 17:57 56.97092 -7.38461 4782 ft 122 kts 145°
2026-04-28 17:58 56.96377 -7.37689 5398 ft 124 kts 144°
2026-04-28 17:58 56.95638 -7.36890 6016 ft 126 kts 144°
2026-04-28 17:58 56.94883 -7.36076 6632 ft 128 kts 143°
2026-04-28 17:58 56.94127 -7.35257 7236 ft 130 kts 143°
2026-04-28 17:59 56.93351 -7.34420 7829 ft 131 kts 143°
2026-04-28 17:59 56.92493 -7.33479 7864 ft 168 kts 144°
2026-04-28 17:59 56.91386 -7.32280 7718 ft 196 kts 145°
2026-04-28 17:59 56.90178 -7.30984 7580 ft 208 kts 146°
2026-04-28 18:00 56.88897 -7.29608 7446 ft 215 kts 146°
2026-04-28 18:00 56.87621 -7.28239 7434 ft 214 kts 146°
2026-04-28 18:00 56.86338 -7.26860 7436 ft 212 kts 146°
2026-04-28 18:00 56.85087 -7.25521 7429 ft 208 kts 145°
2026-04-28 18:01 56.83855 -7.24200 7419 ft 201 kts 145°
2026-04-28 18:01 56.82666 -7.22929 7449 ft 198 kts 145°
2026-04-28 18:01 56.81476 -7.21653 7454 ft 197 kts 145°
2026-04-28 18:01 56.80304 -7.20398 7440 ft 196 kts 145°
2026-04-28 18:02 56.79126 -7.19136 7420 ft 195 kts 146°
2026-04-28 18:02 56.77972 -7.17900 7421 ft 193 kts 146°
2026-04-28 18:02 56.76807 -7.16656 7429 ft 193 kts 146°
2026-04-28 18:02 56.75661 -7.15433 7449 ft 192 kts 145°
2026-04-28 18:03 56.74495 -7.14191 7456 ft 193 kts 145°
2026-04-28 18:03 56.73338 -7.12958 7450 ft 194 kts 145°
2026-04-28 18:03 56.72184 -7.11725 7446 ft 193 kts 145°
2026-04-28 18:03 56.71016 -7.10482 7439 ft 193 kts 145°
2026-04-28 18:04 56.69864 -7.09260 7453 ft 194 kts 145°
2026-04-28 18:04 56.68694 -7.08015 7441 ft 194 kts 145°
2026-04-28 18:04 56.67540 -7.06789 7439 ft 193 kts 145°
2026-04-28 18:04 56.66385 -7.05565 7447 ft 193 kts 145°
2026-04-28 18:05 56.65217 -7.04328 7448 ft 193 kts 145°
2026-04-28 18:05 56.64445 -7.03507 7448 ft 193 kts 145°
2026-04-28 18:05 56.62895 -7.01868 7448 ft 193 kts 145°
2026-04-28 18:05 56.61737 -7.00644 7448 ft 193 kts 147°
2026-04-28 18:06 56.60580 -6.99430 7448 ft 193 kts 147°
2026-04-28 18:06 56.59519 -6.97984 7415 ft 187 kts 123°
2026-04-28 18:06 56.58806 -6.96064 7444 ft 185 kts 123°
2026-04-28 18:06 56.58133 -6.94080 7447 ft 184 kts 120°
2026-04-28 18:07 56.57485 -6.92105 7447 ft 184 kts 118°
2026-04-28 18:07 56.56836 -6.90083 7447 ft 184 kts 116°
2026-04-28 18:07 56.56203 -6.88082 7446 ft 184 kts 115°
2026-04-28 18:07 56.55564 -6.86041 7446 ft 185 kts 116°
2026-04-28 18:08 56.54940 -6.84025 7447 ft 185 kts 116°
2026-04-28 18:08 56.54309 -6.81982 7447 ft 185 kts 116°
2026-04-28 18:08 56.53688 -6.79961 7448 ft 185 kts 116°
2026-04-28 18:08 56.53063 -6.77931 7448 ft 185 kts 116°
2026-04-28 18:09 56.52431 -6.75879 7447 ft 185 kts 116°
2026-04-28 18:09 56.51808 -6.73858 7447 ft 185 kts 116°
2026-04-28 18:09 56.51179 -6.71818 7447 ft 185 kts 116°
2026-04-28 18:09 56.50546 -6.69768 7447 ft 185 kts 116°
2026-04-28 18:10 56.49922 -6.67749 7447 ft 185 kts 116°
2026-04-28 18:10 56.49292 -6.65709 7447 ft 185 kts 116°
2026-04-28 18:10 56.48667 -6.63688 7447 ft 185 kts 116°
2026-04-28 18:10 56.48036 -6.61649 7447 ft 185 kts 116°
2026-04-28 18:11 56.47403 -6.59610 7447 ft 185 kts 116°
2026-04-28 18:11 56.46779 -6.57601 7447 ft 185 kts 116°
2026-04-28 18:11 56.46148 -6.55562 7447 ft 185 kts 116°
2026-04-28 18:11 56.45524 -6.53557 7452 ft 185 kts 116°
2026-04-28 18:12 56.44891 -6.51523 7445 ft 185 kts 116°
2026-04-28 18:12 56.44257 -6.49486 7447 ft 185 kts 116°
2026-04-28 18:12 56.43630 -6.47474 7447 ft 185 kts 116°
2026-04-28 18:12 56.42996 -6.45439 7455 ft 185 kts 116°
2026-04-28 18:13 56.42365 -6.43420 7445 ft 186 kts 116°
2026-04-28 18:13 56.41731 -6.41387 7453 ft 185 kts 116°
2026-04-28 18:13 56.41103 -6.39378 7441 ft 186 kts 116°
2026-04-28 18:13 56.40474 -6.37367 7440 ft 185 kts 116°
2026-04-28 18:14 56.39838 -6.35334 7450 ft 185 kts 116°
2026-04-28 18:14 56.39207 -6.33320 7445 ft 186 kts 117°
2026-04-28 18:14 56.38611 -6.31421 7448 ft 186 kts 117°
2026-04-28 18:14 56.37967 -6.29369 7440 ft 187 kts 116°
2026-04-28 18:15 56.37333 -6.27349 7442 ft 185 kts 117°
2026-04-28 18:15 56.36734 -6.25447 7440 ft 186 kts 117°
2026-04-28 18:15 56.36100 -6.23431 7434 ft 186 kts 117°
2026-04-28 18:15 56.35464 -6.21413 7435 ft 186 kts 117°
2026-04-28 18:16 56.34828 -6.19396 7434 ft 186 kts 117°
2026-04-28 18:16 56.34187 -6.17364 7431 ft 185 kts 117°
2026-04-28 18:16 56.33555 -6.15358 7438 ft 185 kts 117°
2026-04-28 18:16 56.32911 -6.13325 7434 ft 185 kts 117°
2026-04-28 18:17 56.32276 -6.11319 7432 ft 185 kts 116°
2026-04-28 18:17 56.31638 -6.09307 7439 ft 185 kts 116°
2026-04-28 18:17 56.31004 -6.07305 7439 ft 185 kts 117°
2026-04-28 18:17 56.30360 -6.05272 7438 ft 185 kts 117°
2026-04-28 18:18 56.29724 -6.03268 7444 ft 185 kts 117°
2026-04-28 18:18 56.29082 -6.01243 7436 ft 186 kts 117°
2026-04-28 18:18 56.28445 -5.99238 7433 ft 185 kts 117°
2026-04-28 18:18 56.28015 -5.97889 7435 ft 185 kts 116°
2026-04-28 18:19 56.27166 -5.95223 7425 ft 184 kts 116°
2026-04-28 18:19 56.26534 -5.93243 7448 ft 184 kts 116°
2026-04-28 18:19 56.25892 -5.91225 7427 ft 185 kts 117°
2026-04-28 18:19 56.25259 -5.89242 7441 ft 185 kts 116°
2026-04-28 18:20 56.24614 -5.87222 7430 ft 185 kts 116°
2026-04-28 18:20 56.23978 -5.85238 7437 ft 184 kts 116°
2026-04-28 18:20 56.23383 -5.83194 7422 ft 183 kts 109°
2026-04-28 18:20 56.22853 -5.81100 7426 ft 183 kts 111°
2026-04-28 18:21 56.22337 -5.79034 7438 ft 183 kts 112°
2026-04-28 18:21 56.21822 -5.76966 7439 ft 183 kts 112°
2026-04-28 18:21 56.21295 -5.74865 7433 ft 183 kts 111°
2026-04-28 18:21 56.20775 -5.72793 7430 ft 183 kts 111°
2026-04-28 18:22 56.20245 -5.70695 7427 ft 182 kts 111°
2026-04-28 18:22 56.19725 -5.68633 7420 ft 182 kts 111°
2026-04-28 18:22 56.19206 -5.66580 7460 ft 182 kts 111°
2026-04-28 18:22 56.18673 -5.64466 7436 ft 185 kts 111°
2026-04-28 18:23 56.18145 -5.62389 7425 ft 184 kts 111°
2026-04-28 18:23 56.17614 -5.60291 7429 ft 183 kts 111°
2026-04-28 18:23 56.17088 -5.58214 7437 ft 183 kts 111°
2026-04-28 18:23 56.16561 -5.56136 7432 ft 184 kts 111°
2026-04-28 18:24 56.16032 -5.54059 7435 ft 183 kts 111°
2026-04-28 18:24 56.15681 -5.52673 7429 ft 184 kts 111°
2026-04-28 18:24 56.14970 -5.49884 7432 ft 184 kts 111°
2026-04-28 18:24 56.14439 -5.47798 7427 ft 184 kts 111°
2026-04-28 18:25 56.13908 -5.45721 7425 ft 184 kts 111°
2026-04-28 18:25 56.13380 -5.43645 7429 ft 183 kts 111°
2026-04-28 18:25 56.12844 -5.41546 7433 ft 184 kts 111°
2026-04-28 18:26 56.11788 -5.37431 7440 ft 182 kts 111°
2026-04-28 18:26 56.11254 -5.35344 7445 ft 183 kts 111°
2026-04-28 18:26 56.10716 -5.33247 7434 ft 184 kts 112°
2026-04-28 18:26 56.10181 -5.31157 7422 ft 184 kts 112°
2026-04-28 18:27 56.09640 -5.29055 7430 ft 184 kts 112°
2026-04-28 18:27 56.09108 -5.26980 7426 ft 184 kts 112°
2026-04-28 18:27 56.08569 -5.24886 7426 ft 184 kts 112°
2026-04-28 18:27 56.08029 -5.22787 7430 ft 184 kts 112°
2026-04-28 18:28 56.07494 -5.20709 7429 ft 184 kts 111°
2026-04-28 18:28 56.06962 -5.18628 7430 ft 184 kts 112°
2026-04-28 18:28 56.06420 -5.16518 7426 ft 183 kts 112°
2026-04-28 18:28 56.05885 -5.14448 7432 ft 183 kts 111°
2026-04-28 18:29 56.05351 -5.12390 7432 ft 183 kts 111°
2026-04-28 18:29 56.04812 -5.10308 7426 ft 183 kts 112°
2026-04-28 18:29 56.04281 -5.08260 7422 ft 183 kts 112°
2026-04-28 18:29 56.03742 -5.06181 7430 ft 183 kts 112°
2026-04-28 18:30 56.03209 -5.04126 7437 ft 184 kts 111°
2026-04-28 18:30 56.03032 -5.03445 7436 ft 184 kts 111°
2026-04-28 18:30 56.02137 -4.99994 7437 ft 184 kts 111°
2026-04-28 18:30 56.01594 -4.97920 7438 ft 183 kts 111°
2026-04-28 18:31 56.00905 -4.96001 7190 ft 179 kts 117°
2026-04-28 18:31 56.00447 -4.94009 6975 ft 172 kts 110°
2026-04-28 18:31 55.99925 -4.92199 7198 ft 149 kts 115°
2026-04-28 18:31 55.99371 -4.90545 7013 ft 162 kts 117°
2026-04-28 18:32 55.98740 -4.88750 6636 ft 176 kts 120°
2026-04-28 18:32 55.98089 -4.86878 6368 ft 174 kts 115°
2026-04-28 18:32 55.97577 -4.85006 6315 ft 165 kts 112°
2026-04-28 18:32 55.97062 -4.83187 6248 ft 160 kts 115°
2026-04-28 18:33 55.96502 -4.81499 6171 ft 158 kts 117°
2026-04-28 18:33 55.95919 -4.79905 6175 ft 152 kts 120°
2026-04-28 18:33 55.95350 -4.78290 5974 ft 159 kts 117°
2026-04-28 18:33 55.94724 -4.76624 5798 ft 162 kts 121°
2026-04-28 18:34 55.94055 -4.74963 5649 ft 163 kts 120°
2026-04-28 18:34 55.93412 -4.73275 5382 ft 170 kts 120°
2026-04-28 18:34 55.92772 -4.71498 5153 ft 170 kts 116°
2026-04-28 18:34 55.92208 -4.69628 4949 ft 170 kts 114°
2026-04-28 18:35 55.91676 -4.67815 4615 ft 163 kts 114°
2026-04-28 18:35 55.91149 -4.66091 4073 ft 159 kts 115°
2026-04-28 18:35 55.90592 -4.64517 3801 ft 134 kts 121°
2026-04-28 18:35 55.90106 -4.63219 3506 ft 123 kts 112°
2026-04-28 18:36 55.89848 -4.61819 3183 ft 116 kts 96°
2026-04-28 18:36 55.89741 -4.60439 2863 ft 112 kts 94°
2026-04-28 18:36 55.89590 -4.58974 2724 ft 122 kts 99°
2026-04-28 18:36 55.89345 -4.57423 2719 ft 138 kts 104°
2026-04-28 18:37 55.88948 -4.55775 2616 ft 151 kts 112°
2026-04-28 18:37 55.88436 -4.54099 2445 ft 155 kts 117°
2026-04-28 18:37 55.87883 -4.52517 2127 ft 147 kts 117°
2026-04-28 18:37 55.87374 -4.50944 1565 ft 154 kts 116°
2026-04-28 18:38 55.86886 -4.49352 1258 ft 137 kts 114°
2026-04-28 18:38 55.86521 -4.47919 971 ft 116 kts 105°
2026-04-28 18:38 55.86296 -4.46696 645 ft 94 kts 103°
2026-04-28 18:38 55.86117 -4.45733 384 ft 78 kts 95°
2026-04-28 18:39 55.86344 -4.44922 44 ft 73 kts 57°
2026-04-28 18:39 55.86596 -4.44421 27 ft 39 kts 61°
2026-04-28 18:39 55.86622 -4.44023 26 ft 29 kts 80°
2026-04-28 18:39 55.86721 -4.43726 26 ft 22 kts 60°
2026-04-28 18:40 55.86782 -4.43425 26 ft 26 kts 76°
2026-04-28 18:40 55.86823 -4.43139 26 ft 21 kts 73°
2026-04-28 18:40 55.86779 -4.42983 26 ft 20 kts 166°
2026-04-28 18:40 55.86655 -4.42918 26 ft 18 kts 162°
2026-04-28 18:41 55.86583 -4.42913 26 ft 9 kts 272°
2026-04-28 18:41 55.86574 -4.42985 26 ft 0 kts 253°